sensor_id;sensor_type;location;lat;lon;timestamp;pressure;altitude;pressure_sealevel;temperature;humidity
2339;BME280;1180;51.438;6.978;2022-12-07T00:01:28;100377.28;;;8.66;93.87
2339;BME280;1180;51.438;6.978;2022-12-07T00:03:56;100376.59;;;8.62;93.54
2339;BME280;1180;51.438;6.978;2022-12-07T00:06:26;100376.66;;;8.61;93.87
2339;BME280;1180;51.438;6.978;2022-12-07T00:08:51;100383.91;;;8.70;93.68
2339;BME280;1180;51.438;6.978;2022-12-07T00:11:21;100373.53;;;8.73;93.39
2339;BME280;1180;51.438;6.978;2022-12-07T00:13:51;100382.00;;;8.74;93.20
2339;BME280;1180;51.438;6.978;2022-12-07T00:16:18;100380.66;;;8.66;93.66
2339;BME280;1180;51.438;6.978;2022-12-07T00:18:45;100383.59;;;8.76;92.94
2339;BME280;1180;51.438;6.978;2022-12-07T00:21:16;100385.56;;;8.71;93.02
2339;BME280;1180;51.438;6.978;2022-12-07T00:23:43;100375.34;;;8.71;92.77
2339;BME280;1180;51.438;6.978;2022-12-07T00:26:20;100373.34;;;8.59;93.36
2339;BME280;1180;51.438;6.978;2022-12-07T00:28:48;100370.00;;;8.58;93.87
2339;BME280;1180;51.438;6.978;2022-12-07T00:31:14;100370.00;;;8.58;94.07
2339;BME280;1180;51.438;6.978;2022-12-07T00:33:41;100371.78;;;8.74;94.03
2339;BME280;1180;51.438;6.978;2022-12-07T00:36:09;100363.94;;;8.77;93.48
2339;BME280;1180;51.438;6.978;2022-12-07T00:38:36;100363.75;;;8.64;94.24
2339;BME280;1180;51.438;6.978;2022-12-07T00:41:05;100361.03;;;8.67;93.74
2339;BME280;1180;51.438;6.978;2022-12-07T00:43:31;100360.34;;;8.63;93.99
2339;BME280;1180;51.438;6.978;2022-12-07T00:45:57;100358.47;;;8.67;93.51
2339;BME280;1180;51.438;6.978;2022-12-07T00:48:23;100362.69;;;8.68;93.56
2339;BME280;1180;51.438;6.978;2022-12-07T00:50:49;100360.78;;;8.72;93.71
2339;BME280;1180;51.438;6.978;2022-12-07T00:53:15;100362.38;;;8.74;92.99
2339;BME280;1180;51.438;6.978;2022-12-07T00:55:40;100354.03;;;8.71;93.23
2339;BME280;1180;51.438;6.978;2022-12-07T00:58:06;100349.66;;;8.73;93.71
2339;BME280;1180;51.438;6.978;2022-12-07T01:00:35;100360.78;;;8.72;94.21
2339;BME280;1180;51.438;6.978;2022-12-07T01:03:08;100357.72;;;8.65;93.90
2339;BME280;1180;51.438;6.978;2022-12-07T01:05:34;100350.97;;;8.64;94.18
2339;BME280;1180;51.438;6.978;2022-12-07T01:08:00;100351.09;;;8.78;93.42
2339;BME280;1180;51.438;6.978;2022-12-07T01:10:26;100351.78;;;8.82;92.96
2339;BME280;1180;51.438;6.978;2022-12-07T01:12:51;100347.09;;;8.73;93.49
2339;BME280;1180;51.438;6.978;2022-12-07T01:15:17;100352.53;;;8.66;93.41
2339;BME280;1180;51.438;6.978;2022-12-07T01:17:42;100345.91;;;8.62;94.00
2339;BME280;1180;51.438;6.978;2022-12-07T01:20:08;100342.06;;;8.71;93.64
2339;BME280;1180;51.438;6.978;2022-12-07T01:22:40;100343.63;;;8.74;93.59
2339;BME280;1180;51.438;6.978;2022-12-07T01:25:07;100345.38;;;8.73;93.41
2339;BME280;1180;51.438;6.978;2022-12-07T01:27:34;100349.44;;;8.77;93.32
2339;BME280;1180;51.438;6.978;2022-12-07T01:30:00;100356.06;;;8.64;94.16
2339;BME280;1180;51.438;6.978;2022-12-07T01:32:25;100352.00;;;8.60;93.85
2339;BME280;1180;51.438;6.978;2022-12-07T01:34:50;100348.84;;;8.55;94.51
2339;BME280;1180;51.438;6.978;2022-12-07T01:37:16;100347.72;;;8.60;94.52
2339;BME280;1180;51.438;6.978;2022-12-07T01:39:41;100350.81;;;8.67;93.73
2339;BME280;1180;51.438;6.978;2022-12-07T01:42:10;100356.91;;;8.64;94.26
2339;BME280;1180;51.438;6.978;2022-12-07T01:47:39;100356.44;;;8.56;93.99
2339;BME280;1180;51.438;6.978;2022-12-07T01:50:05;100359.06;;;8.55;94.96
2339;BME280;1180;51.438;6.978;2022-12-07T01:52:33;100358.91;;;8.58;94.30
2339;BME280;1180;51.438;6.978;2022-12-07T01:55:04;100357.94;;;8.60;94.28
2339;BME280;1180;51.438;6.978;2022-12-07T01:57:33;100355.19;;;8.65;93.75
2339;BME280;1180;51.438;6.978;2022-12-07T02:00:00;100357.09;;;8.60;93.47
2339;BME280;1180;51.438;6.978;2022-12-07T02:02:30;100357.84;;;8.44;94.77
2339;BME280;1180;51.438;6.978;2022-12-07T02:04:59;100344.00;;;8.48;94.65
2339;BME280;1180;51.438;6.978;2022-12-07T02:07:24;100340.56;;;8.49;94.20
2339;BME280;1180;51.438;6.978;2022-12-07T02:09:50;100343.06;;;8.51;94.38
2339;BME280;1180;51.438;6.978;2022-12-07T02:12:16;100336.00;;;8.56;93.83
2339;BME280;1180;51.438;6.978;2022-12-07T02:14:42;100337.94;;;8.51;94.22
2339;BME280;1180;51.438;6.978;2022-12-07T02:17:21;100334.63;;;8.49;94.15
2339;BME280;1180;51.438;6.978;2022-12-07T02:30:49;100338.06;;;8.48;93.47
2339;BME280;1180;51.438;6.978;2022-12-07T02:33:25;100345.31;;;8.57;93.06
2339;BME280;1180;51.438;6.978;2022-12-07T02:36:04;100347.03;;;8.57;93.03
2339;BME280;1180;51.438;6.978;2022-12-07T02:41:17;100351.63;;;8.50;92.79
2339;BME280;1180;51.438;6.978;2022-12-07T02:43:48;100343.06;;;8.51;93.09
2339;BME280;1180;51.438;6.978;2022-12-07T02:46:31;100343.97;;;8.50;93.34
2339;BME280;1180;51.438;6.978;2022-12-07T02:48:58;100342.81;;;8.38;93.04
2339;BME280;1180;51.438;6.978;2022-12-07T02:51:25;100341.16;;;8.37;93.61
2339;BME280;1180;51.438;6.978;2022-12-07T02:53:51;100336.19;;;8.34;93.46
2339;BME280;1180;51.438;6.978;2022-12-07T02:56:41;100339.25;;;8.41;93.17
2339;BME280;1180;51.438;6.978;2022-12-07T03:07:28;100338.66;;;8.35;93.15
2339;BME280;1180;51.438;6.978;2022-12-07T03:10:07;100339.69;;;8.31;92.91
2339;BME280;1180;51.438;6.978;2022-12-07T03:12:47;100335.13;;;8.38;92.79
2339;BME280;1180;51.438;6.978;2022-12-07T03:15:45;100335.28;;;8.35;92.69
2339;BME280;1180;51.438;6.978;2022-12-07T03:18:13;100336.47;;;8.28;92.47
2339;BME280;1180;51.438;6.978;2022-12-07T03:20:41;100343.25;;;8.29;91.94
2339;BME280;1180;51.438;6.978;2022-12-07T03:23:12;100342.47;;;8.27;92.25
2339;BME280;1180;51.438;6.978;2022-12-07T03:25:43;100337.66;;;8.20;92.41
2339;BME280;1180;51.438;6.978;2022-12-07T03:28:13;100341.13;;;8.19;92.47
2339;BME280;1180;51.438;6.978;2022-12-07T03:31:16;100342.88;;;8.19;92.53
2339;BME280;1180;51.438;6.978;2022-12-07T03:36:40;100337.81;;;8.17;92.09
2339;BME280;1180;51.438;6.978;2022-12-07T03:39:29;100328.50;;;8.16;91.92
2339;BME280;1180;51.438;6.978;2022-12-07T03:41:59;100330.88;;;8.02;92.84
2339;BME280;1180;51.438;6.978;2022-12-07T03:44:26;100333.94;;;8.08;92.25
2339;BME280;1180;51.438;6.978;2022-12-07T03:47:12;100335.63;;;8.09;92.34
2339;BME280;1180;51.438;6.978;2022-12-07T03:50:10;100339.59;;;7.98;92.20
2339;BME280;1180;51.438;6.978;2022-12-07T03:52:43;100342.16;;;7.98;92.52
2339;BME280;1180;51.438;6.978;2022-12-07T03:55:26;100335.88;;;7.86;92.94
2339;BME280;1180;51.438;6.978;2022-12-07T03:57:57;100341.81;;;7.86;93.37
2339;BME280;1180;51.438;6.978;2022-12-07T04:00:23;100338.00;;;7.95;93.25
2339;BME280;1180;51.438;6.978;2022-12-07T04:02:52;100336.94;;;7.99;93.21
2339;BME280;1180;51.438;6.978;2022-12-07T04:05:17;100332.94;;;7.93;93.43
2339;BME280;1180;51.438;6.978;2022-12-07T04:07:42;100335.31;;;7.98;92.59
2339;BME280;1180;51.438;6.978;2022-12-07T04:10:08;100334.94;;;8.06;92.89
2339;BME280;1180;51.438;6.978;2022-12-07T04:12:34;100336.56;;;7.89;93.28
2339;BME280;1180;51.438;6.978;2022-12-07T04:14:59;100336.28;;;7.95;92.82
2339;BME280;1180;51.438;6.978;2022-12-07T04:17:24;100332.28;;;7.90;93.19
2339;BME280;1180;51.438;6.978;2022-12-07T04:19:50;100342.34;;;7.93;93.23
2339;BME280;1180;51.438;6.978;2022-12-07T04:22:15;100338.56;;;8.02;92.63
2339;BME280;1180;51.438;6.978;2022-12-07T04:24:41;100339.09;;;7.89;92.77
2339;BME280;1180;51.438;6.978;2022-12-07T04:27:06;100332.34;;;7.88;92.93
2339;BME280;1180;51.438;6.978;2022-12-07T04:29:31;100331.28;;;7.92;92.70
2339;BME280;1180;51.438;6.978;2022-12-07T04:31:57;100325.13;;;7.79;93.03
2339;BME280;1180;51.438;6.978;2022-12-07T04:34:22;100332.72;;;7.80;93.14
2339;BME280;1180;51.438;6.978;2022-12-07T04:36:48;100326.56;;;7.85;92.73
2339;BME280;1180;51.438;6.978;2022-12-07T04:39:23;100325.56;;;7.87;92.55
2339;BME280;1180;51.438;6.978;2022-12-07T04:41:48;100328.13;;;7.87;91.96
2339;BME280;1180;51.438;6.978;2022-12-07T04:44:15;100326.63;;;7.83;92.04
2339;BME280;1180;51.438;6.978;2022-12-07T04:46:40;100320.91;;;7.78;91.92
2339;BME280;1180;51.438;6.978;2022-12-07T04:49:06;100329.38;;;7.78;91.77
2339;BME280;1180;51.438;6.978;2022-12-07T04:51:32;100330.66;;;7.70;92.00
2339;BME280;1180;51.438;6.978;2022-12-07T04:53:57;100332.16;;;7.74;92.51
2339;BME280;1180;51.438;6.978;2022-12-07T04:56:23;100329.38;;;7.78;92.46
2339;BME280;1180;51.438;6.978;2022-12-07T04:58:51;100329.63;;;7.74;92.30
2339;BME280;1180;51.438;6.978;2022-12-07T05:01:18;100331.31;;;7.73;91.94
2339;BME280;1180;51.438;6.978;2022-12-07T05:03:43;100329.00;;;7.69;92.38
2339;BME280;1180;51.438;6.978;2022-12-07T05:06:10;100327.53;;;7.63;92.68
2339;BME280;1180;51.438;6.978;2022-12-07T05:08:36;100333.34;;;7.66;92.70
2339;BME280;1180;51.438;6.978;2022-12-07T05:11:06;100324.84;;;7.66;92.73
2339;BME280;1180;51.438;6.978;2022-12-07T05:13:32;100325.41;;;7.73;92.51
2339;BME280;1180;51.438;6.978;2022-12-07T05:15:58;100320.16;;;7.76;92.38
2339;BME280;1180;51.438;6.978;2022-12-07T05:18:23;100326.63;;;7.83;91.96
2339;BME280;1180;51.438;6.978;2022-12-07T05:20:49;100328.28;;;7.84;91.69
2339;BME280;1180;51.438;6.978;2022-12-07T05:23:16;100321.72;;;7.78;91.70
2339;BME280;1180;51.438;6.978;2022-12-07T05:25:41;100333.47;;;7.83;91.73
2339;BME280;1180;51.438;6.978;2022-12-07T05:28:06;100328.38;;;7.83;91.75
2339;BME280;1180;51.438;6.978;2022-12-07T05:30:32;100333.81;;;7.75;91.95
2339;BME280;1180;51.438;6.978;2022-12-07T05:32:57;100329.06;;;7.67;92.38
2339;BME280;1180;51.438;6.978;2022-12-07T05:35:24;100332.38;;;7.69;92.58
2339;BME280;1180;51.438;6.978;2022-12-07T05:37:49;100326.22;;;7.73;92.71
2339;BME280;1180;51.438;6.978;2022-12-07T05:40:15;100317.50;;;7.77;92.29
2339;BME280;1180;51.438;6.978;2022-12-07T05:42:42;100322.63;;;7.77;91.79
2339;BME280;1180;51.438;6.978;2022-12-07T05:45:08;100316.09;;;7.72;92.00
2339;BME280;1180;51.438;6.978;2022-12-07T05:47:34;100308.56;;;7.69;92.42
2339;BME280;1180;51.438;6.978;2022-12-07T05:49:59;100321.47;;;7.65;92.83
2339;BME280;1180;51.438;6.978;2022-12-07T05:52:25;100319.88;;;7.63;92.80
2339;BME280;1180;51.438;6.978;2022-12-07T05:54:51;100318.84;;;7.67;92.54
2339;BME280;1180;51.438;6.978;2022-12-07T05:57:16;100314.56;;;7.68;92.82
2339;BME280;1180;51.438;6.978;2022-12-07T05:59:42;100317.75;;;7.73;92.36
2339;BME280;1180;51.438;6.978;2022-12-07T06:02:12;100312.53;;;7.74;92.43
2339;BME280;1180;51.438;6.978;2022-12-07T06:04:42;100306.97;;;7.66;92.00
2339;BME280;1180;51.438;6.978;2022-12-07T06:07:08;100309.53;;;7.66;92.61
2339;BME280;1180;51.438;6.978;2022-12-07T06:09:34;100299.41;;;7.64;92.65
2339;BME280;1180;51.438;6.978;2022-12-07T06:12:00;100307.81;;;7.66;92.84
2339;BME280;1180;51.438;6.978;2022-12-07T06:14:45;100320.00;;;7.79;91.80
2339;BME280;1180;51.438;6.978;2022-12-07T06:17:11;100311.03;;;7.70;91.52
2339;BME280;1180;51.438;6.978;2022-12-07T06:19:38;100317.88;;;7.70;91.82
2339;BME280;1180;51.438;6.978;2022-12-07T06:22:04;100323.06;;;7.68;91.69
2339;BME280;1180;51.438;6.978;2022-12-07T06:24:30;100319.69;;;7.68;91.16
2339;BME280;1180;51.438;6.978;2022-12-07T06:26:56;100321.34;;;7.69;91.30
2339;BME280;1180;51.438;6.978;2022-12-07T06:29:21;100326.59;;;7.65;91.38
2339;BME280;1180;51.438;6.978;2022-12-07T06:31:47;100326.59;;;7.65;91.29
2339;BME280;1180;51.438;6.978;2022-12-07T06:34:15;100327.59;;;7.61;91.82
2339;BME280;1180;51.438;6.978;2022-12-07T06:36:41;100325.00;;;7.63;91.65
2339;BME280;1180;51.438;6.978;2022-12-07T06:39:07;100326.03;;;7.59;92.01
2339;BME280;1180;51.438;6.978;2022-12-07T06:41:35;100331.69;;;7.65;92.25
2339;BME280;1180;51.438;6.978;2022-12-07T06:44:00;100329.91;;;7.68;92.02
2339;BME280;1180;51.438;6.978;2022-12-07T06:46:25;100342.94;;;7.61;91.63
2339;BME280;1180;51.438;6.978;2022-12-07T06:48:51;100336.09;;;7.62;92.36
2339;BME280;1180;51.438;6.978;2022-12-07T06:51:17;100341.22;;;7.62;92.17
2339;BME280;1180;51.438;6.978;2022-12-07T06:53:42;100348.25;;;7.57;92.18
2339;BME280;1180;51.438;6.978;2022-12-07T06:56:11;100338.81;;;7.59;93.27
2339;BME280;1180;51.438;6.978;2022-12-07T06:58:36;100323.06;;;7.68;92.69
2339;BME280;1180;51.438;6.978;2022-12-07T07:01:03;100329.16;;;7.65;92.04
2339;BME280;1180;51.438;6.978;2022-12-07T07:03:33;100331.91;;;7.61;92.24
2339;BME280;1180;51.438;6.978;2022-12-07T07:05:58;100332.31;;;7.71;91.59
2339;BME280;1180;51.438;6.978;2022-12-07T07:08:23;100331.13;;;7.59;91.47
2339;BME280;1180;51.438;6.978;2022-12-07T07:10:49;100331.06;;;7.60;91.98
2339;BME280;1180;51.438;6.978;2022-12-07T07:13:14;100329.53;;;7.56;92.14
2339;BME280;1180;51.438;6.978;2022-12-07T07:15:40;100330.44;;;7.55;92.25
2339;BME280;1180;51.438;6.978;2022-12-07T07:18:05;100327.22;;;7.51;92.43
2339;BME280;1180;51.438;6.978;2022-12-07T07:20:31;100327.88;;;7.55;92.95
2339;BME280;1180;51.438;6.978;2022-12-07T07:22:56;100327.00;;;7.56;92.26
2339;BME280;1180;51.438;6.978;2022-12-07T07:25:22;100333.69;;;7.59;92.47
2339;BME280;1180;51.438;6.978;2022-12-07T07:27:48;100335.53;;;7.55;92.02
2339;BME280;1180;51.438;6.978;2022-12-07T07:30:14;100343.06;;;7.58;91.78
2339;BME280;1180;51.438;6.978;2022-12-07T07:32:39;100336.06;;;7.63;91.42
2339;BME280;1180;51.438;6.978;2022-12-07T07:35:05;100336.31;;;7.57;91.65
2339;BME280;1180;51.438;6.978;2022-12-07T07:37:30;100340.59;;;7.57;91.71
2339;BME280;1180;51.438;6.978;2022-12-07T07:39:56;100338.81;;;7.59;91.58
2339;BME280;1180;51.438;6.978;2022-12-07T07:42:21;100342.06;;;7.62;91.32
2339;BME280;1180;51.438;6.978;2022-12-07T07:44:47;100342.13;;;7.61;91.02
2339;BME280;1180;51.438;6.978;2022-12-07T07:47:12;100344.88;;;7.56;91.37
2339;BME280;1180;51.438;6.978;2022-12-07T07:49:38;100343.34;;;7.52;91.96
2339;BME280;1180;51.438;6.978;2022-12-07T07:52:05;100343.34;;;7.52;91.91
2339;BME280;1180;51.438;6.978;2022-12-07T07:54:30;100345.16;;;7.50;92.07
2339;BME280;1180;51.438;6.978;2022-12-07T07:56:56;100340.59;;;7.57;91.72
2339;BME280;1180;51.438;6.978;2022-12-07T07:59:21;100343.44;;;7.50;91.92
2339;BME280;1180;51.438;6.978;2022-12-07T08:01:47;100348.94;;;7.60;91.83
2339;BME280;1180;51.438;6.978;2022-12-07T08:04:12;100349.03;;;7.59;91.81
2339;BME280;1180;51.438;6.978;2022-12-07T08:06:37;100341.63;;;7.53;92.19
2339;BME280;1180;51.438;6.978;2022-12-07T08:09:03;100346.59;;;7.56;92.23
2339;BME280;1180;51.438;6.978;2022-12-07T08:11:30;100341.34;;;7.59;92.18
2339;BME280;1180;51.438;6.978;2022-12-07T08:13:55;100346.66;;;7.54;92.25
2339;BME280;1180;51.438;6.978;2022-12-07T08:16:21;100355.78;;;7.60;92.27
2339;BME280;1180;51.438;6.978;2022-12-07T08:18:46;100353.28;;;7.58;92.33
2339;BME280;1180;51.438;6.978;2022-12-07T08:21:14;100354.28;;;7.56;92.54
2339;BME280;1180;51.438;6.978;2022-12-07T08:27:02;100355.03;;;7.58;92.58
2339;BME280;1180;51.438;6.978;2022-12-07T08:29:28;100358.00;;;7.68;92.20
2339;BME280;1180;51.438;6.978;2022-12-07T08:31:53;100358.00;;;7.68;92.01
2339;BME280;1180;51.438;6.978;2022-12-07T08:34:19;100356.88;;;7.73;92.14
2339;BME280;1180;51.438;6.978;2022-12-07T08:36:44;100354.41;;;7.72;91.82
2339;BME280;1180;51.438;6.978;2022-12-07T08:39:09;100356.72;;;7.76;91.69
2339;BME280;1180;51.438;6.978;2022-12-07T08:41:35;100350.81;;;7.76;91.73
2339;BME280;1180;51.438;6.978;2022-12-07T08:44:00;100357.56;;;7.77;91.40
2339;BME280;1180;51.438;6.978;2022-12-07T08:46:53;100358.38;;;7.77;90.95
2339;BME280;1180;51.438;6.978;2022-12-07T08:49:25;100358.31;;;7.79;90.88
2339;BME280;1180;51.438;6.978;2022-12-07T08:51:52;100361.84;;;7.76;90.57
2339;BME280;1180;51.438;6.978;2022-12-07T08:54:19;100363.91;;;7.68;90.09
2339;BME280;1180;51.438;6.978;2022-12-07T08:56:46;100357.91;;;7.69;90.52
2339;BME280;1180;51.438;6.978;2022-12-07T08:59:14;100356.34;;;7.66;90.60
2339;BME280;1180;51.438;6.978;2022-12-07T09:01:40;100358.59;;;7.73;90.26
2339;BME280;1180;51.438;6.978;2022-12-07T09:04:06;100356.25;;;7.68;90.73
2339;BME280;1180;51.438;6.978;2022-12-07T09:06:31;100355.59;;;7.64;90.93
2339;BME280;1180;51.438;6.978;2022-12-07T09:09:00;100358.94;;;7.65;91.28
2339;BME280;1180;51.438;6.978;2022-12-07T09:11:26;100363.25;;;7.64;91.42
2339;BME280;1180;51.438;6.978;2022-12-07T09:13:52;100354.81;;;7.62;91.03
2339;BME280;1180;51.438;6.978;2022-12-07T09:16:17;100360.56;;;7.68;91.16
2339;BME280;1180;51.438;6.978;2022-12-07T09:18:42;100362.34;;;7.65;91.18
2339;BME280;1180;51.438;6.978;2022-12-07T09:21:08;100366.28;;;7.73;90.87
2339;BME280;1180;51.438;6.978;2022-12-07T09:23:33;100370.81;;;7.85;90.59
2339;BME280;1180;51.438;6.978;2022-12-07T09:26:03;100370.66;;;7.88;90.94
2339;BME280;1180;51.438;6.978;2022-12-07T09:28:32;100373.84;;;7.93;89.90
2339;BME280;1180;51.438;6.978;2022-12-07T09:30:57;100383.44;;;7.88;89.84
2339;BME280;1180;51.438;6.978;2022-12-07T09:33:23;100368.72;;;7.93;89.85
2339;BME280;1180;51.438;6.978;2022-12-07T09:35:49;100364.50;;;7.92;89.62
2339;BME280;1180;51.438;6.978;2022-12-07T09:38:16;100372.88;;;7.96;90.06
2339;BME280;1180;51.438;6.978;2022-12-07T09:40:41;100365.06;;;7.99;89.74
2339;BME280;1180;51.438;6.978;2022-12-07T09:43:18;100364.50;;;7.92;90.49
2339;BME280;1180;51.438;6.978;2022-12-07T09:45:45;100369.50;;;7.95;90.36
2339;BME280;1180;51.438;6.978;2022-12-07T09:48:37;100360.66;;;8.03;89.67
2339;BME280;1180;51.438;6.978;2022-12-07T09:53:39;100358.91;;;8.03;89.03
2339;BME280;1180;51.438;6.978;2022-12-07T09:56:05;100361.56;;;8.02;89.42
2339;BME280;1180;51.438;6.978;2022-12-07T09:58:32;100358.00;;;8.04;90.32
2339;BME280;1180;51.438;6.978;2022-12-07T10:01:05;100355.16;;;8.10;90.51
2339;BME280;1180;51.438;6.978;2022-12-07T10:03:37;100356.75;;;8.13;90.32
2339;BME280;1180;51.438;6.978;2022-12-07T10:06:05;100356.47;;;8.19;90.00
2339;BME280;1180;51.438;6.978;2022-12-07T10:08:31;100352.78;;;8.25;89.91
2339;BME280;1180;51.438;6.978;2022-12-07T10:10:58;100347.38;;;8.31;89.39
2339;BME280;1180;51.438;6.978;2022-12-07T10:13:40;100349.47;;;8.23;89.06
2339;BME280;1180;51.438;6.978;2022-12-07T10:16:32;100349.47;;;8.23;89.48
2339;BME280;1180;51.438;6.978;2022-12-07T10:18:53;100342.72;;;8.22;88.56
2339;BME280;1180;51.438;6.978;2022-12-07T10:21:26;100334.06;;;8.24;89.12
2339;BME280;1180;51.438;6.978;2022-12-07T10:24:02;100337.25;;;8.30;89.91
2339;BME280;1180;51.438;6.978;2022-12-07T10:31:54;100328.84;;;8.63;87.11
2339;BME280;1180;51.438;6.978;2022-12-07T10:36:47;100314.25;;;8.65;86.77
2339;BME280;1180;51.438;6.978;2022-12-07T10:39:20;100314.09;;;8.68;87.16
2339;BME280;1180;51.438;6.978;2022-12-07T10:44:25;100308.13;;;8.67;86.70
2339;BME280;1180;51.438;6.978;2022-12-07T10:59:33;100306.94;;;8.91;85.10
2339;BME280;1180;51.438;6.978;2022-12-07T11:02:38;100296.44;;;9.13;84.41
2339;BME280;1180;51.438;6.978;2022-12-07T11:07:55;100292.06;;;9.15;82.62
2339;BME280;1180;51.438;6.978;2022-12-07T11:15:42;100292.06;;;8.99;82.96
2339;BME280;1180;51.438;6.978;2022-12-07T11:18:23;100290.06;;;9.04;82.42
2339;BME280;1180;51.438;6.978;2022-12-07T11:32:01;100271.41;;;9.02;83.91
2339;BME280;1180;51.438;6.978;2022-12-07T11:34:47;100270.97;;;9.10;83.17
2339;BME280;1180;51.438;6.978;2022-12-07T11:37:19;100265.47;;;9.18;81.85
2339;BME280;1180;51.438;6.978;2022-12-07T11:39:51;100256.06;;;9.18;81.97
2339;BME280;1180;51.438;6.978;2022-12-07T11:42:22;100253.75;;;9.30;81.38
2339;BME280;1180;51.438;6.978;2022-12-07T11:44:56;100252.03;;;9.14;81.72
2339;BME280;1180;51.438;6.978;2022-12-07T11:47:38;100251.00;;;9.17;81.82
2339;BME280;1180;51.438;6.978;2022-12-07T11:50:27;100256.72;;;9.22;80.87
2339;BME280;1180;51.438;6.978;2022-12-07T11:56:12;100252.75;;;9.16;81.93
2339;BME280;1180;51.438;6.978;2022-12-07T11:58:47;100245.56;;;9.39;81.31
2339;BME280;1180;51.438;6.978;2022-12-07T12:03:53;100246.16;;;9.28;80.26
2339;BME280;1180;51.438;6.978;2022-12-07T12:06:21;100249.88;;;9.38;79.74
2339;BME280;1180;51.438;6.978;2022-12-07T12:08:59;100248.56;;;9.31;79.07
2339;BME280;1180;51.438;6.978;2022-12-07T12:22:28;100235.66;;;9.33;79.17
2339;BME280;1180;51.438;6.978;2022-12-07T12:24:57;100245.38;;;9.42;80.05
2339;BME280;1180;51.438;6.978;2022-12-07T12:27:28;100238.88;;;9.36;79.64
2339;BME280;1180;51.438;6.978;2022-12-07T12:29:59;100232.75;;;9.39;78.56
2339;BME280;1180;51.438;6.978;2022-12-07T12:32:42;100228.13;;;9.30;78.16
2339;BME280;1180;51.438;6.978;2022-12-07T12:35:31;100226.16;;;9.19;78.06
2339;BME280;1180;51.438;6.978;2022-12-07T12:40:44;100228.63;;;9.20;79.56
2339;BME280;1180;51.438;6.978;2022-12-07T12:43:50;100224.50;;;9.18;79.09
2339;BME280;1180;51.438;6.978;2022-12-07T12:51:41;100216.06;;;9.16;80.53
2339;BME280;1180;51.438;6.978;2022-12-07T12:54:22;100210.63;;;9.22;79.83
2339;BME280;1180;51.438;6.978;2022-12-07T12:56:52;100212.03;;;9.28;80.05
2339;BME280;1180;51.438;6.978;2022-12-07T13:01:48;100201.09;;;9.40;79.56
2339;BME280;1180;51.438;6.978;2022-12-07T13:04:24;100206.31;;;9.38;80.38
2339;BME280;1180;51.438;6.978;2022-12-07T13:06:50;100203.84;;;9.21;79.87
2339;BME280;1180;51.438;6.978;2022-12-07T13:09:20;100199.22;;;9.12;79.67
2339;BME280;1180;51.438;6.978;2022-12-07T13:11:56;100203.38;;;9.14;79.79
2339;BME280;1180;51.438;6.978;2022-12-07T13:14:41;100197.41;;;9.30;79.81
2339;BME280;1180;51.438;6.978;2022-12-07T13:17:10;100197.72;;;9.39;79.89
2339;BME280;1180;51.438;6.978;2022-12-07T13:25:26;100202.88;;;9.23;79.32
2339;BME280;1180;51.438;6.978;2022-12-07T13:28:07;100192.19;;;9.47;78.26
2339;BME280;1180;51.438;6.978;2022-12-07T13:30:43;100186.78;;;9.52;78.54
2339;BME280;1180;51.438;6.978;2022-12-07T13:33:17;100186.97;;;9.49;77.60
2339;BME280;1180;51.438;6.978;2022-12-07T13:35:43;100191.19;;;9.50;77.87
2339;BME280;1180;51.438;6.978;2022-12-07T13:38:28;100186.16;;;9.48;77.56
2339;BME280;1180;51.438;6.978;2022-12-07T13:41:17;100176.72;;;9.49;76.80
2339;BME280;1180;51.438;6.978;2022-12-07T13:43:44;100173.88;;;9.23;78.00
2339;BME280;1180;51.438;6.978;2022-12-07T13:46:11;100171.47;;;9.20;78.25
2339;BME280;1180;51.438;6.978;2022-12-07T13:48:52;100168.50;;;9.12;79.02
2339;BME280;1180;51.438;6.978;2022-12-07T13:51:23;100166.34;;;9.20;79.47
2339;BME280;1180;51.438;6.978;2022-12-07T13:54:00;100163.06;;;9.18;79.17
2339;BME280;1180;51.438;6.978;2022-12-07T13:56:32;100164.22;;;9.12;79.73
2339;BME280;1180;51.438;6.978;2022-12-07T13:58:59;100164.06;;;9.15;79.91
2339;BME280;1180;51.438;6.978;2022-12-07T14:01:25;100161.41;;;9.17;79.12
2339;BME280;1180;51.438;6.978;2022-12-07T14:03:50;100144.97;;;9.21;79.20
2339;BME280;1180;51.438;6.978;2022-12-07T14:06:26;100142.41;;;9.21;78.73
2339;BME280;1180;51.438;6.978;2022-12-07T14:09:07;100150.00;;;9.22;78.84
2339;BME280;1180;51.438;6.978;2022-12-07T14:11:32;100143.31;;;9.20;79.12
2339;BME280;1180;51.438;6.978;2022-12-07T14:13:59;100142.75;;;9.15;79.32
2339;BME280;1180;51.438;6.978;2022-12-07T14:16:32;100138.53;;;9.14;79.72
2339;BME280;1180;51.438;6.978;2022-12-07T14:18:59;100145.88;;;9.20;79.80
2339;BME280;1180;51.438;6.978;2022-12-07T14:21:30;100145.31;;;9.15;80.36
2339;BME280;1180;51.438;6.978;2022-12-07T14:24:17;100145.06;;;9.03;80.88
2339;BME280;1180;51.438;6.978;2022-12-07T14:26:45;100133.09;;;9.04;81.32
2339;BME280;1180;51.438;6.978;2022-12-07T14:31:52;100133.09;;;9.04;81.45
2339;BME280;1180;51.438;6.978;2022-12-07T14:34:22;100131.53;;;9.01;81.70
2339;BME280;1180;51.438;6.978;2022-12-07T14:36:47;100123.84;;;9.01;81.79
2339;BME280;1180;51.438;6.978;2022-12-07T14:39:13;100126.25;;;9.04;81.20
2339;BME280;1180;51.438;6.978;2022-12-07T14:41:38;100124.78;;;9.00;81.58
2339;BME280;1180;51.438;6.978;2022-12-07T14:44:16;100123.03;;;9.01;81.52
2339;BME280;1180;51.438;6.978;2022-12-07T14:46:42;100115.84;;;8.91;81.70
2339;BME280;1180;51.438;6.978;2022-12-07T14:49:07;100121.31;;;8.85;81.88
2339;BME280;1180;51.438;6.978;2022-12-07T14:51:36;100124.94;;;8.81;82.28
2339;BME280;1180;51.438;6.978;2022-12-07T14:54:04;100121.16;;;8.72;82.62
2339;BME280;1180;51.438;6.978;2022-12-07T14:56:29;100114.03;;;8.77;82.59
2339;BME280;1180;51.438;6.978;2022-12-07T14:58:55;100113.06;;;8.80;82.33
2339;BME280;1180;51.438;6.978;2022-12-07T15:01:23;100112.56;;;8.73;83.66
2339;BME280;1180;51.438;6.978;2022-12-07T15:03:49;100108.50;;;8.69;82.81
2339;BME280;1180;51.438;6.978;2022-12-07T15:06:17;100111.06;;;8.69;83.72
2339;BME280;1180;51.438;6.978;2022-12-07T15:08:42;100110.91;;;8.72;82.97
2339;BME280;1180;51.438;6.978;2022-12-07T15:11:18;100109.09;;;8.74;84.35
2339;BME280;1180;51.438;6.978;2022-12-07T15:13:44;100110.97;;;8.87;82.50
2339;BME280;1180;51.438;6.978;2022-12-07T15:16:27;100110.56;;;8.78;81.78
2339;BME280;1180;51.438;6.978;2022-12-07T15:18:53;100116.66;;;8.76;81.34
2339;BME280;1180;51.438;6.978;2022-12-07T15:21:18;100112.16;;;8.65;81.79
2339;BME280;1180;51.438;6.978;2022-12-07T15:23:46;100104.78;;;8.59;81.79
2339;BME280;1180;51.438;6.978;2022-12-07T15:26:12;100108.41;;;8.55;83.35